Time;durP1;ratioP1;P1;durP2;ratioP2;P2;SDS_P1;SDS_P2;PMS_P1;PMS_P2;Temp;Humidity;BMP_temperature;BMP_pressure;BME280_temperature;BME280_humidity;BME280_pressure;Samples;Min_cycle;Max_cycle;Signal;HPM_P1;HPM_P2
2023/12/22 00:00:54;;;;;;;;;;;;;;;4.38;100.00;94131.09;10625867;27;2107;-66
2023/12/22 00:06:02;;;;;;;;;;;;;;;4.39;100.00;94215.16;10603789;27;1890;-67
2023/12/22 00:11:08;;;;;;;;;;;;;;;3.24;100.00;94261.88;10601003;27;1907;-69
2023/12/22 00:16:18;;;;;;;;;;;;;;;0.74;100.00;94286.94;10586045;27;1903;-71
2023/12/22 00:21:27;;;;;;;;;;;;;;;0.29;100.00;94274.00;10594960;27;2057;-69
2023/12/22 00:26:32;;;;;;;;;;;;;;;0.19;100.00;94314.34;10602342;27;1970;-69
2023/12/22 00:31:37;;;;;;;;;;;;;;;0.22;100.00;94289.25;10581181;27;1999;-70
2023/12/22 00:36:40;;;;;;;;;;;;;;;0.32;100.00;94272.69;10589351;27;2331;-68
2023/12/22 00:41:44;;;;;;;;;;;;;;;0.44;100.00;94276.81;10605351;27;1920;-67
2023/12/22 00:46:49;;;;;;;;;;;;;;;0.58;100.00;94281.75;10585412;27;2220;-69
2023/12/22 00:51:55;;;;;;;;;;;;;;;0.68;100.00;94292.44;10584724;27;2011;-67
2023/12/22 00:56:58;;;;;;;;;;;;;;;0.67;100.00;94296.91;10587390;27;1986;-67
2023/12/22 01:02:07;;;;;;;;;;;;;;;0.77;100.00;94307.63;10603196;27;1917;-67
2023/12/22 01:07:13;;;;;;;;;;;;;;;0.84;100.00;94299.50;10610618;27;1929;-70
2023/12/22 01:12:18;;;;;;;;;;;;;;;0.96;100.00;94305.44;10602352;27;2132;-67
2023/12/22 01:17:45;;;;;;;;;;;;;;;1.02;100.00;94309.72;10583158;27;2114;-69
2023/12/22 01:22:49;;;;;;;;;;;;;;;1.06;100.00;94300.22;10585252;27;2108;-68
2023/12/22 01:27:53;;;;;;;;;;;;;;;1.08;100.00;94310.56;10582753;27;1918;-69
2023/12/22 01:32:58;;;;;;;;;;;;;;;0.93;100.00;94316.50;10574596;27;2236;-70
2023/12/22 01:38:03;;;;;;;;;;;;;;;0.85;100.00;94324.09;10589418;27;2022;-66
2023/12/22 01:43:09;;;;;;;;;;;;;;;0.89;100.00;94341.88;10592106;27;4995;-69
2023/12/22 01:48:12;;;;;;;;;;;;;;;0.80;100.00;94328.28;10579719;27;2275;-71
2023/12/22 01:53:14;;;;;;;;;;;;;;;0.58;100.00;94326.69;10588116;27;2067;-69
2023/12/22 01:58:17;;;;;;;;;;;;;;;0.46;100.00;94313.59;10573617;27;1902;-68
2023/12/22 02:03:20;;;;;;;;;;;;;;;0.42;100.00;94305.34;10572550;27;1917;-68
2023/12/22 02:08:24;;;;;;;;;;;;;;;0.39;100.00;94319.06;10608100;27;2008;-69
2023/12/22 02:13:29;;;;;;;;;;;;;;;0.45;100.00;94335.81;10611324;27;1942;-69
2023/12/22 02:18:34;;;;;;;;;;;;;;;0.30;100.00;94357.53;10577365;27;1939;-67
2023/12/22 02:23:38;;;;;;;;;;;;;;;0.10;100.00;94347.50;10604477;27;1908;-67
2023/12/22 02:28:44;;;;;;;;;;;;;;;0.09;100.00;94326.59;10594919;27;2026;-66
2023/12/22 02:33:52;;;;;;;;;;;;;;;0.04;100.00;94294.81;10581615;27;2174;-66
2023/12/22 02:38:56;;;;;;;;;;;;;;;0.11;100.00;94293.59;10585254;27;1915;-71
2023/12/22 02:44:01;;;;;;;;;;;;;;;0.23;100.00;94302.22;10569869;27;4884;-74
2023/12/22 02:49:07;;;;;;;;;;;;;;;0.31;100.00;94302.81;10597086;27;2083;-73
2023/12/22 02:54:22;;;;;;;;;;;;;;;0.43;100.00;94280.50;10578856;27;1891;-73
2023/12/22 02:59:28;;;;;;;;;;;;;;;0.48;100.00;94288.50;10591809;27;1917;-65
2023/12/22 03:04:32;;;;;;;;;;;;;;;0.57;100.00;94280.94;10590264;27;2118;-66
2023/12/22 03:09:45;;;;;;;;;;;;;;;0.67;100.00;94269.69;10597776;27;2103;-67
2023/12/22 03:14:51;;;;;;;;;;;;;;;0.72;100.00;94252.00;10601552;27;2091;-68
2023/12/22 03:19:54;;;;;;;;;;;;;;;0.78;100.00;94253.66;10599685;27;2147;-66
2023/12/22 03:24:59;;;;;;;;;;;;;;;0.92;100.00;94251.41;10574654;27;1987;-67
2023/12/22 03:30:03;;;;;;;;;;;;;;;1.04;100.00;94251.25;10590762;27;1928;-67
2023/12/22 03:35:19;;;;;;;;;;;;;;;1.04;100.00;94249.41;10594577;27;1896;-67
2023/12/22 03:40:23;;;;;;;;;;;;;;;1.04;100.00;94249.41;10586638;27;2168;-70
2023/12/22 03:45:27;;;;;;;;;;;;;;;1.16;100.00;94230.72;10574746;27;4943;-69
2023/12/22 03:50:34;;;;;;;;;;;;;;;1.27;100.00;94247.47;10588826;27;2227;-68
2023/12/22 03:55:39;;;;;;;;;;;;;;;1.30;100.00;94250.41;10593940;27;1987;-67
2023/12/22 04:00:44;;;;;;;;;;;;;;;1.40;100.00;94244.41;10598957;27;2204;-66
2023/12/22 04:05:54;;;;;;;;;;;;;;;1.44;100.00;94245.50;10602851;27;1916;-67
2023/12/22 04:11:03;;;;;;;;;;;;;;;1.60;100.00;94263.09;10591900;27;2029;-66
2023/12/22 04:16:07;;;;;;;;;;;;;;;1.80;100.00;94245.75;10585562;27;2057;-67
2023/12/22 04:21:12;;;;;;;;;;;;;;;2.20;100.00;94239.84;10597876;27;2450;-66
2023/12/22 04:26:19;;;;;;;;;;;;;;;2.59;100.00;94247.41;10594850;27;1937;-66
2023/12/22 04:31:24;;;;;;;;;;;;;;;2.82;100.00;94241.66;10609304;27;1943;-66
2023/12/22 04:36:27;;;;;;;;;;;;;;;3.03;100.00;94226.53;10598497;27;1976;-67
2023/12/22 04:41:32;;;;;;;;;;;;;;;3.11;100.00;94223.34;10605197;27;1968;-66
2023/12/22 04:46:35;;;;;;;;;;;;;;;3.24;100.00;94206.94;10600080;27;2227;-66
2023/12/22 04:51:46;;;;;;;;;;;;;;;3.36;100.00;94213.81;10596629;27;1862;-65
2023/12/22 04:56:50;;;;;;;;;;;;;;;3.36;100.00;94227.09;10598404;27;1995;-67
2023/12/22 05:01:53;;;;;;;;;;;;;;;3.43;100.00;94214.34;10600111;27;1976;-67
2023/12/22 05:06:57;;;;;;;;;;;;;;;3.51;100.00;94219.91;10596919;27;1999;-66
2023/12/22 05:12:01;;;;;;;;;;;;;;;3.64;100.00;94205.28;10580822;27;1962;-67
2023/12/22 05:17:10;;;;;;;;;;;;;;;3.88;100.00;94218.00;10594314;27;2392;-68
2023/12/22 05:22:14;;;;;;;;;;;;;;;3.92;100.00;94219.06;10603464;27;1979;-68
2023/12/22 05:27:17;;;;;;;;;;;;;;;4.06;100.00;94236.81;10565022;27;1925;-68
2023/12/22 05:32:30;;;;;;;;;;;;;;;4.12;100.00;94250.91;10596110;27;2036;-67
2023/12/22 05:37:34;;;;;;;;;;;;;;;4.18;100.00;94255.16;10580286;27;2061;-68
2023/12/22 05:42:42;;;;;;;;;;;;;;;4.23;100.00;94239.19;10598286;27;4928;-68
2023/12/22 05:47:53;;;;;;;;;;;;;;;4.14;100.00;94245.34;10598612;27;2302;-69
2023/12/22 05:52:56;;;;;;;;;;;;;;;3.96;100.00;94274.09;10596662;27;1926;-67
2023/12/22 05:58:02;;;;;;;;;;;;;;;3.68;100.00;94320.59;10583854;27;1958;-67
2023/12/22 06:03:06;;;;;;;;;;;;;;;3.58;100.00;94323.28;10566741;27;2438;-66
2023/12/22 06:08:12;;;;;;;;;;;;;;;3.35;100.00;94318.47;10601951;27;1932;-69
2023/12/22 06:13:15;;;;;;;;;;;;;;;3.11;100.00;94326.09;10598322;27;2415;-70
2023/12/22 06:18:27;;;;;;;;;;;;;;;2.96;100.00;94327.66;10598427;27;2011;-70
2023/12/22 06:23:33;;;;;;;;;;;;;;;3.00;100.00;94349.19;10591008;27;1934;-71
2023/12/22 06:28:39;;;;;;;;;;;;;;;3.03;100.00;94340.69;10599468;27;1943;-71
2023/12/22 06:33:44;;;;;;;;;;;;;;;3.08;100.00;94330.09;10599111;27;1959;-69
2023/12/22 06:38:49;;;;;;;;;;;;;;;3.18;100.00;94329.31;10564514;27;1906;-70
2023/12/22 06:43:54;;;;;;;;;;;;;;;3.29;100.00;94346.88;10603087;27;4967;-71
2023/12/22 06:49:04;;;;;;;;;;;;;;;3.32;100.00;94361.50;10582036;27;2310;-70
2023/12/22 06:54:10;;;;;;;;;;;;;;;3.45;100.00;94334.41;10596186;27;1870;-68
2023/12/22 06:59:18;;;;;;;;;;;;;;;3.63;100.00;94346.41;10566394;27;1898;-69
2023/12/22 07:04:37;;;;;;;;;;;;;;;3.88;100.00;94346.41;10593385;27;1863;-69
2023/12/22 07:09:41;;;;;;;;;;;;;;;4.12;100.00;94351.97;10598366;27;2207;-69
2023/12/22 07:14:47;;;;;;;;;;;;;;;4.12;100.00;94354.63;10587964;27;2059;-68
2023/12/22 07:19:52;;;;;;;;;;;;;;;4.10;100.00;94358.63;10608155;27;2086;-68
2023/12/22 07:25:02;;;;;;;;;;;;;;;4.02;100.00;94378.56;10607302;27;1919;-68
2023/12/22 07:30:08;;;;;;;;;;;;;;;3.97;100.00;94405.16;10605766;27;2226;-67
2023/12/22 07:35:19;;;;;;;;;;;;;;;3.76;100.00;94438.91;10604368;27;2016;-69
2023/12/22 07:40:30;;;;;;;;;;;;;;;3.63;100.00;94445.53;10604347;27;2093;-65
2023/12/22 07:45:37;;;;;;;;;;;;;;;3.55;100.00;94418.63;10590524;27;5154;-67
2023/12/22 07:50:41;;;;;;;;;;;;;;;3.59;100.00;94415.22;10584760;27;1840;-66
2023/12/22 07:55:51;;;;;;;;;;;;;;;3.70;100.00;94379.63;10597288;27;1952;-66
2023/12/22 08:00:56;;;;;;;;;;;;;;;3.88;100.00;94386.28;10596422;27;1997;-65
2023/12/22 08:06:06;;;;;;;;;;;;;;;2.79;100.00;94458.97;10597750;27;2055;-66
2023/12/22 08:11:12;;;;;;;;;;;;;;;2.20;100.00;94512.13;10600326;27;2127;-66
2023/12/22 08:16:15;;;;;;;;;;;;;;;2.20;100.00;94509.47;10603275;27;2071;-65
2023/12/22 08:21:22;;;;;;;;;;;;;;;2.74;100.00;94496.09;10584241;27;1999;-66
2023/12/22 08:26:48;;;;;;;;;;;;;;;2.90;100.00;94501.22;10604719;27;1873;-65
2023/12/22 08:31:53;;;;;;;;;;;;;;;3.06;100.00;94504.78;10587063;27;1900;-66
2023/12/22 08:36:59;;;;;;;;;;;;;;;3.11;100.00;94498.69;10596707;27;1954;-65
2023/12/22 08:42:09;;;;;;;;;;;;;;;3.25;100.00;94495.31;10600281;27;2137;-74
2023/12/22 08:47:13;;;;;;;;;;;;;;;3.39;100.00;94505.47;10603999;27;2227;-66
2023/12/22 08:52:22;;;;;;;;;;;;;;;3.78;100.00;94490.72;10604598;27;2119;-69
2023/12/22 08:57:31;;;;;;;;;;;;;;;3.80;100.00;94490.47;10601712;27;2067;-73
2023/12/22 09:02:48;;;;;;;;;;;;;;;3.90;100.00;94514.41;10599186;27;2200;-75
2023/12/22 09:07:54;;;;;;;;;;;;;;;4.07;100.00;94522.97;10582806;27;1859;-66
2023/12/22 09:18:15;;;;;;;;;;;;;;;4.29;100.00;94514.75;10588603;27;1936;-64
2023/12/22 09:23:21;;;;;;;;;;;;;;;4.38;100.00;94516.88;10589940;27;1996;-65
2023/12/22 09:28:30;;;;;;;;;;;;;;;4.63;100.00;94476.16;10580995;27;2052;-65
2023/12/22 09:33:49;;;;;;;;;;;;;;;4.70;100.00;94490.78;10584446;27;1907;-66
2023/12/22 09:38:58;;;;;;;;;;;;;;;4.86;100.00;94487.06;10596622;27;1916;-66
2023/12/22 09:44:05;;;;;;;;;;;;;;;4.98;100.00;94462.81;10575813;27;4949;-65
2023/12/22 09:49:11;;;;;;;;;;;;;;;4.96;100.00;94488.09;10576062;27;1928;-67
2023/12/22 09:54:16;;;;;;;;;;;;;;;4.86;100.00;94489.72;10598174;27;2007;-65
2023/12/22 09:59:24;;;;;;;;;;;;;;;4.72;100.00;94495.88;10592212;27;2410;-66
2023/12/22 10:04:29;;;;;;;;;;;;;;;4.45;100.00;94490.78;10580857;27;2022;-66
2023/12/22 10:09:33;;;;;;;;;;;;;;;4.20;100.00;94528.81;10585023;27;1924;-64
2023/12/22 10:14:38;;;;;;;;;;;;;;;3.82;100.00;94528.22;10614653;27;1950;-66
2023/12/22 10:19:45;;;;;;;;;;;;;;;3.54;100.00;94516.16;10582757;27;1906;-66
2023/12/22 10:24:56;;;;;;;;;;;;;;;3.35;100.00;94520.31;10592778;27;1866;-67
2023/12/22 10:30:01;;;;;;;;;;;;;;;3.19;100.00;94512.28;10580031;27;2100;-67
2023/12/22 10:35:08;;;;;;;;;;;;;;;3.15;100.00;94507.75;10603743;27;1912;-66
2023/12/22 10:40:15;;;;;;;;;;;;;;;3.15;100.00;94511.19;10606746;27;2102;-69
2023/12/22 10:45:23;;;;;;;;;;;;;;;3.08;100.00;94494.69;10602580;27;4963;-68
2023/12/22 10:50:52;;;;;;;;;;;;;;;3.18;100.00;94468.22;10597802;27;1924;-65
2023/12/22 10:55:56;;;;;;;;;;;;;;;3.21;100.00;94462.38;10591242;27;1894;-71
2023/12/22 11:01:10;;;;;;;;;;;;;;;3.33;100.00;94469.31;10606858;27;1971;-67
2023/12/22 11:06:14;;;;;;;;;;;;;;;3.52;100.00;94462.50;10605969;27;2208;-67
2023/12/22 11:11:18;;;;;;;;;;;;;;;3.75;100.00;94477.16;10606932;27;1845;-67
2023/12/22 11:16:24;;;;;;;;;;;;;;;4.02;100.00;94458.34;10603200;27;1993;-73
2023/12/22 11:21:28;;;;;;;;;;;;;;;4.17;100.00;94466.31;10601574;27;1906;-67
2023/12/22 11:26:39;;;;;;;;;;;;;;;4.20;100.00;94467.63;10600954;27;1899;-67
2023/12/22 11:31:44;;;;;;;;;;;;;;;4.28;100.00;94459.94;10581616;27;2001;-66
2023/12/22 11:36:49;;;;;;;;;;;;;;;4.32;100.00;94434.38;10604068;27;1973;-66
2023/12/22 11:41:54;;;;;;;;;;;;;;;4.39;100.00;94438.66;10595701;27;2455;-66
2023/12/22 11:47:04;;;;;;;;;;;;;;;4.41;100.00;94440.00;10600129;27;1894;-66
2023/12/22 11:52:11;;;;;;;;;;;;;;;4.40;100.00;94469.53;10574695;27;1943;-72
2023/12/22 11:57:22;;;;;;;;;;;;;;;4.35;100.00;94446.38;10589707;27;1854;-69
2023/12/22 12:02:26;;;;;;;;;;;;;;;4.38;100.00;94458.34;10607311;27;1976;-70
2023/12/22 12:07:33;;;;;;;;;;;;;;;4.39;100.00;94451.94;10604206;27;1845;-69
2023/12/22 12:12:37;;;;;;;;;;;;;;;4.33;100.00;94446.66;10600273;27;1866;-67
2023/12/22 12:17:41;;;;;;;;;;;;;;;4.39;100.00;94444.78;10606270;27;1873;-67
2023/12/22 12:22:47;;;;;;;;;;;;;;;4.46;100.00;94417.91;10601380;27;2068;-67
2023/12/22 12:27:52;;;;;;;;;;;;;;;4.46;100.00;94423.22;10600753;27;1949;-65
2023/12/22 12:32:56;;;;;;;;;;;;;;;4.48;100.00;94402.47;10617452;27;2103;-67
2023/12/22 12:38:03;;;;;;;;;;;;;;;4.50;100.00;94389.69;10601511;27;2112;-67
2023/12/22 12:43:06;;;;;;;;;;;;;;;4.42;100.00;94390.25;10585936;27;1996;-66
2023/12/22 12:48:08;;;;;;;;;;;;;;;4.51;100.00;94384.09;10591481;27;1951;-74
2023/12/22 12:53:17;;;;;;;;;;;;;;;4.56;100.00;94381.41;10605127;27;1878;-70
2023/12/22 12:58:23;;;;;;;;;;;;;;;4.59;100.00;94364.13;10607239;27;1869;-76
2023/12/22 13:03:27;;;;;;;;;;;;;;;4.65;100.00;94347.09;10564672;27;1953;-70
2023/12/22 13:08:31;;;;;;;;;;;;;;;4.64;100.00;94345.47;10606783;27;1874;-76
2023/12/22 13:13:45;;;;;;;;;;;;;;;4.62;100.00;94328.97;10607341;27;2162;-69
2023/12/22 13:18:52;;;;;;;;;;;;;;;4.60;100.00;94325.81;10565209;27;1920;-71
2023/12/22 13:23:58;;;;;;;;;;;;;;;4.54;100.00;94302.94;10606007;27;2317;-68
2023/12/22 13:29:08;;;;;;;;;;;;;;;4.50;100.00;94323.16;10582289;27;1836;-68
2023/12/22 13:34:12;;;;;;;;;;;;;;;4.43;100.00;94323.44;10604137;27;1894;-69
2023/12/22 13:39:19;;;;;;;;;;;;;;;4.41;100.00;94309.63;10575256;27;1839;-72
2023/12/22 13:44:25;;;;;;;;;;;;;;;4.38;100.00;94296.06;10584729;27;4952;-77
2023/12/22 13:49:29;;;;;;;;;;;;;;;4.44;100.00;94285.13;10611631;27;1587;-74
2023/12/22 13:54:34;;;;;;;;;;;;;;;4.48;100.00;94272.09;10586327;27;1817;-72
2023/12/22 13:59:39;;;;;;;;;;;;;;;4.58;100.00;94258.72;10598092;27;1345;-69
2023/12/22 14:04:42;;;;;;;;;;;;;;;4.60;100.00;94264.59;10603427;27;1988;-69
2023/12/22 14:09:55;;;;;;;;;;;;;;;4.72;100.00;94273.06;10584615;27;1951;-72
2023/12/22 14:15:00;;;;;;;;;;;;;;;4.74;100.00;94257.59;10604108;27;1637;-69
2023/12/22 14:20:15;;;;;;;;;;;;;;;4.80;100.00;94288.44;10583953;27;2465;-69
2023/12/22 14:25:20;;;;;;;;;;;;;;;4.83;100.00;94274.56;10581055;27;1922;-71
2023/12/22 14:30:24;;;;;;;;;;;;;;;4.89;100.00;94281.47;10599864;27;1450;-68
2023/12/22 14:35:30;;;;;;;;;;;;;;;4.92;100.00;94288.13;10601276;27;1565;-69
2023/12/22 14:40:36;;;;;;;;;;;;;;;4.96;100.00;94256.41;10583786;27;1479;-68
2023/12/22 14:45:43;;;;;;;;;;;;;;;4.96;100.00;94277.72;10596607;27;5023;-68
2023/12/22 14:50:48;;;;;;;;;;;;;;;4.98;100.00;94281.72;10592831;27;1534;-67
2023/12/22 14:55:59;;;;;;;;;;;;;;;5.01;100.00;94307.78;10578101;27;1547;-69
2023/12/22 15:01:02;;;;;;;;;;;;;;;5.00;100.00;94281.44;10578933;27;1936;-69
2023/12/22 15:06:09;;;;;;;;;;;;;;;5.02;100.00;94295.25;10587720;27;1529;-69
2023/12/22 15:11:15;;;;;;;;;;;;;;;5.03;100.00;94294.22;10595819;27;1460;-70
2023/12/22 15:16:20;;;;;;;;;;;;;;;5.06;100.00;94314.97;10601436;27;1410;-71
2023/12/22 15:21:32;;;;;;;;;;;;;;;5.08;100.00;94304.81;10594346;27;1933;-77
2023/12/22 15:26:40;;;;;;;;;;;;;;;5.07;100.00;94295.25;10600416;27;1749;-75
2023/12/22 15:31:59;;;;;;;;;;;;;;;5.11;100.00;94307.75;10589367;27;1462;-75
2023/12/22 15:37:04;;;;;;;;;;;;;;;5.15;100.00;94308.78;10600472;27;2048;-78
2023/12/22 15:42:12;;;;;;;;;;;;;;;5.20;100.00;94305.28;10603656;27;4992;-71
2023/12/22 15:47:16;;;;;;;;;;;;;;;5.28;100.00;94318.03;10589947;27;1823;-72
2023/12/22 15:52:21;;;;;;;;;;;;;;;5.33;100.00;94333.19;10602035;27;1467;-69
2023/12/22 15:57:23;;;;;;;;;;;;;;;5.37;100.00;94332.38;10592402;27;1459;-68
2023/12/22 16:02:38;;;;;;;;;;;;;;;5.41;100.00;94346.75;10576655;27;2300;-72
2023/12/22 16:08:02;;;;;;;;;;;;;;;5.47;100.00;94338.69;10592529;27;1497;-68
2023/12/22 16:13:06;;;;;;;;;;;;;;;5.53;100.00;94350.91;10596672;27;1947;-69
2023/12/22 16:18:10;;;;;;;;;;;;;;;5.56;100.00;94345.84;10609363;27;1925;-71
2023/12/22 16:23:21;;;;;;;;;;;;;;;5.62;100.00;94365.25;10607091;27;1980;-69
2023/12/22 16:28:28;;;;;;;;;;;;;;;5.66;100.00;94377.78;10600292;27;1909;-68
2023/12/22 16:33:35;;;;;;;;;;;;;;;5.67;100.00;94373.25;10600269;27;1890;-70
2023/12/22 16:44:01;;;;;;;;;;;;;;;5.78;100.00;94379.28;10580666;27;5028;-68
2023/12/22 16:49:06;;;;;;;;;;;;;;;5.84;100.00;94378.97;10595571;27;1893;-68
2023/12/22 16:54:09;;;;;;;;;;;;;;;5.94;100.00;94378.94;10595351;27;1870;-67
2023/12/22 16:59:13;;;;;;;;;;;;;;;5.99;100.00;94387.97;10592936;27;1909;-68
2023/12/22 17:04:20;;;;;;;;;;;;;;;5.89;100.00;94394.94;10580019;27;7900;-68
2023/12/22 17:09:30;;;;;;;;;;;;;;;5.91;100.00;94424.03;10567348;27;5401;-67
2023/12/22 17:14:35;;;;;;;;;;;;;;;5.90;100.00;94423.19;10585016;27;5644;-67
2023/12/22 17:19:39;;;;;;;;;;;;;;;5.90;100.00;94404.53;10583563;27;2123;-65
2023/12/22 17:24:45;;;;;;;;;;;;;;;5.93;100.00;94400.56;10587377;27;4572;-68
2023/12/22 17:29:51;;;;;;;;;;;;;;;5.94;100.00;94408.28;10617279;27;1846;-67
2023/12/22 17:34:59;;;;;;;;;;;;;;;5.97;100.00;94389.03;10599585;27;1995;-65
2023/12/22 17:40:04;;;;;;;;;;;;;;;5.96;100.00;94413.31;10601878;27;4911;-66
2023/12/22 17:45:09;;;;;;;;;;;;;;;6.01;100.00;94431.16;10595010;27;1983;-68
2023/12/22 17:50:15;;;;;;;;;;;;;;;6.02;100.00;94427.44;10599470;27;2111;-68
2023/12/22 17:55:24;;;;;;;;;;;;;;;5.97;100.00;94431.72;10582132;27;2291;-69
2023/12/22 18:00:31;;;;;;;;;;;;;;;6.01;100.00;94447.97;10596677;27;1903;-68
2023/12/22 18:05:35;;;;;;;;;;;;;;;6.05;100.00;94433.00;10596150;27;1999;-71
2023/12/22 18:10:41;;;;;;;;;;;;;;;6.08;100.00;94437.78;10598616;27;2283;-68
2023/12/22 18:15:44;;;;;;;;;;;;;;;5.97;100.00;94423.72;10607666;27;5168;-67
2023/12/22 18:20:52;;;;;;;;;;;;;;;5.95;100.00;94441.88;10591674;27;1954;-67
2023/12/22 18:25:57;;;;;;;;;;;;;;;5.97;100.00;94453.06;10587814;27;1928;-69
2023/12/22 18:31:00;;;;;;;;;;;;;;;5.95;100.00;94444.53;10597166;27;1537;-69
2023/12/22 18:36:18;;;;;;;;;;;;;;;5.98;100.00;94416.53;10615968;27;2098;-71
2023/12/22 18:41:21;;;;;;;;;;;;;;;6.02;100.00;94422.09;10587611;27;1687;-73
2023/12/22 18:46:29;;;;;;;;;;;;;;;6.06;100.00;94412.47;10598818;27;1988;-70
2023/12/22 18:51:35;;;;;;;;;;;;;;;6.12;100.00;94446.03;10586178;27;1473;-70
2023/12/22 18:56:39;;;;;;;;;;;;;;;6.14;100.00;94426.00;10585700;27;1531;-75
2023/12/22 19:01:45;;;;;;;;;;;;;;;6.18;100.00;94434.25;10595930;27;1566;-69
2023/12/22 19:07:14;;;;;;;;;;;;;;;6.17;100.00;94436.13;10596019;27;1603;-77
2023/12/22 19:12:18;;;;;;;;;;;;;;;6.21;100.00;94439.03;10596051;27;1894;-71
2023/12/22 19:17:28;;;;;;;;;;;;;;;6.15;100.00;94438.25;10597925;27;1485;-69
2023/12/22 19:22:41;;;;;;;;;;;;;;;6.10;100.00;94456.16;10605049;27;1901;-71
2023/12/22 19:27:47;;;;;;;;;;;;;;;6.10;100.00;94445.50;10591459;27;1757;-72
2023/12/22 19:32:52;;;;;;;;;;;;;;;6.20;100.00;94448.09;10606860;27;1192;-68
2023/12/22 19:37:59;;;;;;;;;;;;;;;6.24;100.00;94473.19;10601893;27;1508;-69
2023/12/22 19:43:05;;;;;;;;;;;;;;;6.21;100.00;94498.53;10588136;27;1886;-69
2023/12/22 19:48:09;;;;;;;;;;;;;;;6.27;100.00;94485.16;10610392;27;1485;-72
2023/12/22 19:53:16;;;;;;;;;;;;;;;6.25;100.00;94500.66;10605809;27;1381;-69
2023/12/22 19:58:21;;;;;;;;;;;;;;;6.22;100.00;94464.63;10606852;27;1569;-68
2023/12/22 20:03:30;;;;;;;;;;;;;;;6.24;100.00;94499.84;10588457;27;1905;-68
2023/12/22 20:08:40;;;;;;;;;;;;;;;6.21;100.00;94497.72;10607670;27;1518;-68
2023/12/22 20:13:51;;;;;;;;;;;;;;;6.30;100.00;94519.28;10608045;27;5230;-70
2023/12/22 20:19:06;;;;;;;;;;;;;;;6.30;100.00;94520.09;10610220;27;1553;-68
2023/12/22 20:24:14;;;;;;;;;;;;;;;6.33;100.00;94524.06;10613911;27;1910;-69
2023/12/22 20:29:25;;;;;;;;;;;;;;;6.25;100.00;94522.78;10605558;27;1529;-68
2023/12/22 20:34:32;;;;;;;;;;;;;;;6.23;100.00;94511.59;10596977;27;1454;-67
2023/12/22 20:39:40;;;;;;;;;;;;;;;6.23;100.00;94511.59;10601083;27;2315;-69
2023/12/22 20:45:11;;;;;;;;;;;;;;;6.35;100.00;94503.22;10603390;27;1964;-70
2023/12/22 20:50:14;;;;;;;;;;;;;;;6.34;100.00;94521.13;10599396;27;1547;-67
2023/12/22 20:55:21;;;;;;;;;;;;;;;6.41;100.00;94513.59;10589157;27;1502;-68
2023/12/22 21:00:28;;;;;;;;;;;;;;;6.41;100.00;94521.59;10602606;27;1483;-66
2023/12/22 21:05:35;;;;;;;;;;;;;;;6.34;100.00;94536.34;10599369;27;1984;-68
2023/12/22 21:10:40;;;;;;;;;;;;;;;6.28;100.00;94548.13;10589916;27;1491;-66
2023/12/22 21:15:46;;;;;;;;;;;;;;;6.23;100.00;94563.09;10599878;27;4936;-67
2023/12/22 21:20:51;;;;;;;;;;;;;;;6.23;100.00;94552.44;10595044;27;1711;-67
2023/12/22 21:25:55;;;;;;;;;;;;;;;6.21;100.00;94549.22;10590807;27;2036;-68
2023/12/22 21:31:07;;;;;;;;;;;;;;;6.22;100.00;94574.84;10601531;27;1470;-75
2023/12/22 21:36:15;;;;;;;;;;;;;;;6.14;100.00;94551.41;10603796;27;2521;-72
2023/12/22 21:41:20;;;;;;;;;;;;;;;6.09;100.00;94571.97;10590454;27;1503;-72
2023/12/22 21:46:26;;;;;;;;;;;;;;;6.06;100.00;94572.53;10595807;27;1918;-70
2023/12/22 21:51:30;;;;;;;;;;;;;;;5.97;100.00;94583.75;10583985;27;1512;-67
2023/12/22 21:56:39;;;;;;;;;;;;;;;6.01;100.00;94564.53;10586764;27;1689;-67
2023/12/22 22:01:47;;;;;;;;;;;;;;;5.97;100.00;94586.41;10605354;27;1561;-67
2023/12/22 22:06:52;;;;;;;;;;;;;;;5.99;100.00;94572.03;10589209;27;1913;-68
2023/12/22 22:12:20;;;;;;;;;;;;;;;5.96;100.00;94584.03;10602974;27;6002;-66
2023/12/22 22:22:47;;;;;;;;;;;;;;;5.96;100.00;94590.16;10602673;27;1707;-67
2023/12/22 22:27:56;;;;;;;;;;;;;;;5.97;100.00;94597.09;10604296;27;1438;-67
2023/12/22 22:33:09;;;;;;;;;;;;;;;5.97;100.00;94596.28;10598858;27;1894;-67
2023/12/22 22:38:12;;;;;;;;;;;;;;;5.99;100.00;94615.50;10601239;27;1916;-66
2023/12/22 22:43:18;;;;;;;;;;;;;;;6.01;100.00;94623.22;10598083;27;1909;-67
2023/12/22 22:48:23;;;;;;;;;;;;;;;5.96;100.00;94622.16;10603347;27;1998;-69
2023/12/22 22:53:38;;;;;;;;;;;;;;;5.92;100.00;94633.69;10600199;27;2444;-66
2023/12/22 22:58:43;;;;;;;;;;;;;;;5.86;100.00;94622.19;10593394;27;2086;-66
2023/12/22 23:03:48;;;;;;;;;;;;;;;5.86;100.00;94630.19;10593372;27;2126;-69
2023/12/22 23:08:54;;;;;;;;;;;;;;;5.79;100.00;94632.34;10600109;27;1942;-68
2023/12/22 23:13:58;;;;;;;;;;;;;;;5.79;100.00;94642.19;10609141;27;5267;-67
2023/12/22 23:19:12;;;;;;;;;;;;;;;5.79;100.00;94637.69;10617920;27;1901;-68
2023/12/22 23:24:17;;;;;;;;;;;;;;;5.75;100.00;94636.63;10594146;27;2195;-67
2023/12/22 23:29:21;;;;;;;;;;;;;;;5.73;100.00;94628.09;10612881;27;1917;-67
2023/12/22 23:34:27;;;;;;;;;;;;;;;5.74;100.00;94629.69;10608384;27;1914;-68
2023/12/22 23:39:56;;;;;;;;;;;;;;;5.73;100.00;94648.63;10611187;27;1860;-66
2023/12/22 23:45:11;;;;;;;;;;;;;;;5.68;100.00;94646.78;10609975;27;1923;-68
2023/12/22 23:50:17;;;;;;;;;;;;;;;5.67;100.00;94656.63;10612533;27;1886;-67
2023/12/22 23:55:22;;;;;;;;;;;;;;;5.68;100.00;94673.44;10609300;27;1870;-67
